Time;durP1;ratioP1;P1;durP2;ratioP2;P2;SDS_P1;SDS_P2;PMS_P1;PMS_P2;Temp;Humidity;BMP_temperature;BMP_pressure;BME280_temperature;BME280_humidity;BME280_pressure;Samples;Min_cycle;Max_cycle;Signal;HPM_P1;HPM_P2
2023/06/16 00:01:46;;;;;;;16.77;13.50;;;;;;;;;;5078155;28;20482;-79
2023/06/16 00:04:17;;;;;;;17.33;13.17;;;;;;;;;;5075820;28;20528;-80
2023/06/16 00:06:47;;;;;;;19.17;12.97;;;;;;;;;;5082033;28;20990;-80
2023/06/16 00:09:13;;;;;;;15.57;13.50;;;;;;;;;;5075021;28;20969;-80
2023/06/16 00:11:40;;;;;;;16.37;12.67;;;;;;;;;;5064208;28;20444;-80
2023/06/16 00:14:08;;;;;;;16.13;13.23;;;;;;;;;;5077656;28;20534;-80
2023/06/16 00:16:36;;;;;;;16.27;12.30;;;;;;;;;;5078005;28;20459;-79
2023/06/16 00:19:03;;;;;;;16.30;12.43;;;;;;;;;;5086123;28;20855;-80
2023/06/16 00:21:37;;;;;;;15.73;13.07;;;;;;;;;;5077925;28;20971;-80
2023/06/16 00:24:04;;;;;;;15.60;12.80;;;;;;;;;;5082276;28;20445;-80
2023/06/16 00:26:31;;;;;;;13.57;12.20;;;;;;;;;;5074232;28;20451;-80
2023/06/16 00:28:57;;;;;;;14.80;12.40;;;;;;;;;;5077144;28;20486;-80
2023/06/16 00:31:25;;;;;;;21.60;14.93;;;;;;;;;;5080458;28;20450;-80
2023/06/16 00:33:52;;;;;;;18.50;14.60;;;;;;;;;;5066433;28;20459;-80
2023/06/16 00:36:18;;;;;;;21.53;13.60;;;;;;;;;;5084302;28;20466;-80
2023/06/16 00:38:45;;;;;;;15.00;13.33;;;;;;;;;;5080218;28;20832;-80
2023/06/16 00:41:11;;;;;;;15.73;14.07;;;;;;;;;;5073777;28;20885;-80
2023/06/16 00:43:38;;;;;;;16.50;13.17;;;;;;;;;;5077305;28;20463;-80
2023/06/16 00:46:05;;;;;;;19.20;14.87;;;;;;;;;;5081489;28;20824;-80
2023/06/16 00:48:33;;;;;;;16.60;13.90;;;;;;;;;;5076133;28;20498;-80
2023/06/16 00:50:59;;;;;;;16.73;13.00;;;;;;;;;;5070037;28;20467;-80
2023/06/16 00:53:26;;;;;;;16.87;14.07;;;;;;;;;;5077717;28;20462;-78
2023/06/16 00:55:52;;;;;;;15.83;13.60;;;;;;;;;;5075876;28;21016;-80
2023/06/16 00:58:21;;;;;;;21.83;14.00;;;;;;;;;;5078932;28;20471;-78
2023/06/16 01:00:47;;;;;;;16.40;13.97;;;;;;;;;;5075856;28;20486;-78
2023/06/16 01:03:16;;;;;;;16.87;14.23;;;;;;;;;;5087437;28;20446;-79
2023/06/16 01:05:44;;;;;;;19.20;15.60;;;;;;;;;;5092162;28;20458;-78
2023/06/16 01:08:13;;;;;;;19.83;16.00;;;;;;;;;;5077099;28;20478;-79
2023/06/16 01:10:44;;;;;;;20.20;16.53;;;;;;;;;;5074433;28;20474;-79
2023/06/16 01:13:14;;;;;;;18.50;14.23;;;;;;;;;;5078347;28;20452;-78
2023/06/16 01:15:42;;;;;;;19.63;15.17;;;;;;;;;;5078872;28;20482;-78
2023/06/16 01:18:10;;;;;;;20.67;15.87;;;;;;;;;;5080043;28;20541;-78
2023/06/16 01:20:41;;;;;;;21.17;17.40;;;;;;;;;;5080873;28;21007;-78
2023/06/16 01:23:15;;;;;;;25.80;17.53;;;;;;;;;;5074273;28;20443;-80
2023/06/16 01:25:44;;;;;;;19.90;17.17;;;;;;;;;;5073731;28;20475;-80
2023/06/16 01:28:12;;;;;;;19.90;16.33;;;;;;;;;;5079869;28;20470;-81
2023/06/16 01:30:42;;;;;;;21.20;18.13;;;;;;;;;;5076437;28;20890;-78
2023/06/16 01:33:10;;;;;;;19.57;17.33;;;;;;;;;;5083884;28;20544;-79
2023/06/16 01:35:37;;;;;;;20.60;17.27;;;;;;;;;;5074143;28;21012;-79
2023/06/16 01:38:04;;;;;;;23.30;17.47;;;;;;;;;;5081458;28;20481;-79
2023/06/16 01:40:32;;;;;;;21.50;17.97;;;;;;;;;;5068869;28;20471;-80
2023/06/16 01:43:00;;;;;;;20.90;17.17;;;;;;;;;;5073446;28;20494;-80
2023/06/16 01:45:26;;;;;;;21.57;17.33;;;;;;;;;;5071896;28;20486;-81
2023/06/16 01:47:55;;;;;;;20.93;18.20;;;;;;;;;;5079686;28;21040;-81
2023/06/16 01:50:22;;;;;;;27.47;19.80;;;;;;;;;;5084781;28;20995;-80
2023/06/16 01:52:48;;;;;;;23.23;19.20;;;;;;;;;;5077183;28;20447;-81
2023/06/16 01:55:14;;;;;;;20.87;18.30;;;;;;;;;;5079247;28;20475;-80
2023/06/16 01:57:41;;;;;;;20.47;17.70;;;;;;;;;;5076970;28;20470;-80
2023/06/16 02:00:12;;;;;;;22.93;17.07;;;;;;;;;;5073965;28;20825;-81
2023/06/16 02:02:41;;;;;;;22.57;19.10;;;;;;;;;;5070413;28;20988;-79
2023/06/16 02:05:10;;;;;;;19.40;17.33;;;;;;;;;;5068974;28;20470;-79
2023/06/16 02:07:38;;;;;;;23.70;19.70;;;;;;;;;;5083231;28;20561;-79
2023/06/16 02:10:05;;;;;;;23.90;17.53;;;;;;;;;;5085928;28;20998;-79
2023/06/16 02:12:32;;;;;;;20.37;18.23;;;;;;;;;;5076520;28;20483;-78
2023/06/16 02:15:00;;;;;;;22.40;18.30;;;;;;;;;;5077280;28;21034;-78
2023/06/16 02:17:28;;;;;;;21.53;18.43;;;;;;;;;;5080023;28;20483;-79
2023/06/16 02:19:54;;;;;;;24.90;18.83;;;;;;;;;;5078960;28;20845;-79
2023/06/16 02:22:21;;;;;;;24.50;19.40;;;;;;;;;;5047653;28;20476;-79
2023/06/16 02:24:48;;;;;;;22.73;19.07;;;;;;;;;;5074941;28;20542;-80
2023/06/16 02:27:14;;;;;;;24.07;19.73;;;;;;;;;;5078295;28;20469;-80
2023/06/16 02:29:41;;;;;;;24.70;19.63;;;;;;;;;;5085168;28;21022;-80
2023/06/16 02:32:07;;;;;;;22.30;19.03;;;;;;;;;;5081605;28;20450;-80
2023/06/16 02:34:37;;;;;;;24.33;19.10;;;;;;;;;;5075948;28;20842;-79
2023/06/16 02:37:04;;;;;;;27.93;19.73;;;;;;;;;;5083318;28;20485;-80
2023/06/16 02:39:30;;;;;;;23.17;19.27;;;;;;;;;;5086072;28;20477;-80
2023/06/16 02:41:57;;;;;;;21.87;18.50;;;;;;;;;;5085214;28;20478;-80
2023/06/16 02:44:23;;;;;;;21.77;18.40;;;;;;;;;;5078615;28;20833;-80
2023/06/16 02:46:49;;;;;;;19.80;17.73;;;;;;;;;;5083763;28;20835;-80
2023/06/16 02:49:16;;;;;;;20.30;18.17;;;;;;;;;;5076841;28;20472;-81
2023/06/16 02:51:44;;;;;;;22.50;18.63;;;;;;;;;;5077308;28;20532;-78
2023/06/16 02:54:11;;;;;;;23.83;18.80;;;;;;;;;;5080351;28;20459;-80
2023/06/16 02:56:38;;;;;;;27.33;18.47;;;;;;;;;;5063369;28;20826;-81
2023/06/16 02:59:04;;;;;;;22.83;19.33;;;;;;;;;;5078629;28;20821;-80
2023/06/16 03:01:31;;;;;;;22.20;19.30;;;;;;;;;;5074447;28;20489;-80
2023/06/16 03:03:58;;;;;;;23.80;19.43;;;;;;;;;;5076116;28;20473;-80
2023/06/16 03:06:24;;;;;;;21.90;18.00;;;;;;;;;;5081354;28;20457;-81
2023/06/16 03:08:52;;;;;;;25.33;19.60;;;;;;;;;;5080020;28;20474;-80
2023/06/16 03:11:19;;;;;;;22.27;18.03;;;;;;;;;;5085317;28;20451;-78
2023/06/16 03:13:46;;;;;;;24.10;18.60;;;;;;;;;;5077060;28;20542;-80
2023/06/16 03:16:12;;;;;;;22.27;17.93;;;;;;;;;;5083289;28;20453;-80
2023/06/16 03:18:38;;;;;;;22.67;19.87;;;;;;;;;;5080878;28;20467;-80
2023/06/16 03:21:05;;;;;;;23.30;19.10;;;;;;;;;;5075230;28;20465;-80
2023/06/16 03:23:31;;;;;;;22.00;19.57;;;;;;;;;;5082223;28;20483;-80
2023/06/16 03:25:59;;;;;;;25.50;19.73;;;;;;;;;;5066945;28;20454;-80
2023/06/16 03:28:25;;;;;;;27.53;21.37;;;;;;;;;;5068327;28;20984;-80
2023/06/16 03:30:52;;;;;;;25.03;21.57;;;;;;;;;;5083077;28;20834;-80
2023/06/16 03:33:18;;;;;;;25.50;19.13;;;;;;;;;;5091265;28;21004;-80
2023/06/16 03:35:45;;;;;;;28.07;21.27;;;;;;;;;;5079468;28;20435;-80
2023/06/16 03:38:11;;;;;;;25.27;20.67;;;;;;;;;;5078586;28;20462;-80
2023/06/16 03:40:38;;;;;;;28.37;20.90;;;;;;;;;;5090760;28;20474;-80
2023/06/16 03:43:06;;;;;;;29.10;22.00;;;;;;;;;;5078867;28;20541;-80
2023/06/16 03:45:32;;;;;;;24.57;19.33;;;;;;;;;;5074193;28;20458;-80
2023/06/16 03:47:59;;;;;;;21.30;19.10;;;;;;;;;;5078262;28;20565;-80
2023/06/16 03:50:27;;;;;;;23.37;20.20;;;;;;;;;;5082708;28;20497;-80
2023/06/16 03:52:53;;;;;;;21.40;17.93;;;;;;;;;;5084949;28;20454;-80
2023/06/16 03:55:20;;;;;;;23.80;20.07;;;;;;;;;;5083900;28;20462;-80
2023/06/16 03:57:46;;;;;;;24.13;19.27;;;;;;;;;;5083236;28;20485;-80
2023/06/16 04:00:14;;;;;;;22.80;20.27;;;;;;;;;;5081760;28;20471;-80
2023/06/16 04:02:42;;;;;;;20.37;18.20;;;;;;;;;;5095072;28;20487;-80
2023/06/16 04:05:09;;;;;;;22.73;19.00;;;;;;;;;;5079363;28;20474;-80
2023/06/16 04:07:36;;;;;;;23.37;18.00;;;;;;;;;;5076678;28;20471;-80
2023/06/16 04:10:02;;;;;;;21.47;19.13;;;;;;;;;;5081435;28;20477;-80
2023/06/16 04:12:28;;;;;;;27.50;19.70;;;;;;;;;;5085232;28;20437;-80
2023/06/16 04:14:55;;;;;;;29.70;19.10;;;;;;;;;;5081348;28;20481;-80
2023/06/16 04:17:23;;;;;;;21.20;18.33;;;;;;;;;;5077912;28;20467;-80
2023/06/16 04:19:49;;;;;;;27.00;19.00;;;;;;;;;;5089407;28;20470;-80
2023/06/16 04:22:16;;;;;;;25.53;19.43;;;;;;;;;;5076430;28;20485;-80
2023/06/16 04:24:42;;;;;;;23.70;19.80;;;;;;;;;;5075179;28;21010;-80
2023/06/16 04:27:09;;;;;;;26.13;21.87;;;;;;;;;;5076538;28;21034;-80
2023/06/16 04:29:41;;;;;;;27.63;22.70;;;;;;;;;;5077501;28;20467;-80
2023/06/16 04:32:10;;;;;;;28.13;22.80;;;;;;;;;;5063865;28;20455;-79
2023/06/16 04:34:38;;;;;;;33.30;22.63;;;;;;;;;;5081018;28;20471;-80
2023/06/16 04:37:06;;;;;;;25.20;21.40;;;;;;;;;;5081387;28;20899;-80
2023/06/16 04:39:32;;;;;;;30.27;24.73;;;;;;;;;;5079143;28;20484;-80
2023/06/16 04:41:59;;;;;;;27.90;23.73;;;;;;;;;;5086968;28;20482;-80
2023/06/16 04:44:25;;;;;;;31.23;25.33;;;;;;;;;;5072446;28;20470;-79
2023/06/16 04:46:52;;;;;;;29.53;24.00;;;;;;;;;;5074058;28;20483;-80
2023/06/16 04:49:19;;;;;;;31.63;24.70;;;;;;;;;;5073054;28;20470;-80
2023/06/16 04:51:46;;;;;;;31.77;25.67;;;;;;;;;;5086541;28;20449;-80
2023/06/16 04:54:13;;;;;;;33.53;25.57;;;;;;;;;;5078246;28;20477;-80
2023/06/16 04:56:39;;;;;;;35.53;27.07;;;;;;;;;;5074598;28;20451;-80
2023/06/16 04:59:06;;;;;;;36.23;29.00;;;;;;;;;;5079919;28;20478;-79
2023/06/16 05:01:33;;;;;;;34.83;28.13;;;;;;;;;;5079420;28;20447;-80
2023/06/16 05:03:59;;;;;;;37.30;26.83;;;;;;;;;;5073991;28;20498;-80
2023/06/16 05:06:26;;;;;;;36.33;27.60;;;;;;;;;;5086833;28;20962;-80
2023/06/16 05:08:54;;;;;;;43.33;32.00;;;;;;;;;;5079233;28;20562;-80
2023/06/16 05:11:21;;;;;;;36.83;28.93;;;;;;;;;;5086389;28;20429;-80
2023/06/16 05:13:47;;;;;;;40.00;29.37;;;;;;;;;;5085229;28;20459;-80
2023/06/16 05:16:13;;;;;;;37.67;27.97;;;;;;;;;;5076918;28;21000;-80
2023/06/16 05:18:40;;;;;;;45.33;30.07;;;;;;;;;;5079805;28;20819;-80
2023/06/16 05:21:06;;;;;;;38.80;28.47;;;;;;;;;;5082990;28;20822;-80
2023/06/16 05:23:36;;;;;;;34.30;27.60;;;;;;;;;;5083039;28;20475;-80
2023/06/16 05:26:03;;;;;;;40.33;28.73;;;;;;;;;;5083950;28;20537;-81
2023/06/16 05:28:30;;;;;;;40.93;31.03;;;;;;;;;;5076897;28;20479;-81
2023/06/16 05:30:57;;;;;;;35.90;29.50;;;;;;;;;;5079941;28;20461;-80
2023/06/16 05:33:23;;;;;;;35.77;27.53;;;;;;;;;;5074219;28;20762;-80
2023/06/16 05:35:49;;;;;;;36.30;28.37;;;;;;;;;;5082077;28;20454;-80
2023/06/16 05:38:16;;;;;;;34.80;27.43;;;;;;;;;;5084090;28;20469;-79
2023/06/16 05:40:42;;;;;;;32.60;26.83;;;;;;;;;;5083877;28;20470;-80
2023/06/16 05:43:10;;;;;;;30.47;26.50;;;;;;;;;;5064939;28;20478;-80
2023/06/16 05:45:36;;;;;;;31.63;26.30;;;;;;;;;;5080129;28;20522;-79
2023/06/16 05:48:03;;;;;;;34.23;27.10;;;;;;;;;;5081993;28;20463;-79
2023/06/16 05:50:31;;;;;;;29.20;24.83;;;;;;;;;;5069262;28;20470;-79
2023/06/16 05:52:57;;;;;;;35.27;25.40;;;;;;;;;;5081699;28;20803;-78
2023/06/16 05:55:25;;;;;;;31.33;23.23;;;;;;;;;;5077837;28;20465;-78
2023/06/16 05:57:52;;;;;;;29.10;23.60;;;;;;;;;;5078570;28;20478;-81
2023/06/16 06:00:20;;;;;;;27.00;23.33;;;;;;;;;;5081171;28;20497;-79
2023/06/16 06:02:46;;;;;;;27.70;24.10;;;;;;;;;;5076979;28;20482;-78
2023/06/16 06:05:14;;;;;;;26.53;22.47;;;;;;;;;;5073208;28;20471;-78
2023/06/16 06:07:40;;;;;;;23.03;19.73;;;;;;;;;;5085776;28;20437;-79
2023/06/16 06:10:09;;;;;;;22.50;18.30;;;;;;;;;;5073151;28;20452;-78
2023/06/16 06:12:38;;;;;;;25.43;18.53;;;;;;;;;;5068836;28;20429;-79
2023/06/16 06:15:05;;;;;;;21.87;17.90;;;;;;;;;;5070521;28;20446;-79
2023/06/16 06:17:32;;;;;;;24.13;17.33;;;;;;;;;;5078620;28;20541;-79
2023/06/16 06:19:59;;;;;;;21.50;18.37;;;;;;;;;;5075987;28;20981;-81
2023/06/16 06:22:31;;;;;;;20.43;17.90;;;;;;;;;;5076308;28;20494;-81
2023/06/16 06:24:57;;;;;;;23.07;18.70;;;;;;;;;;5081749;28;20958;-80
2023/06/16 06:27:24;;;;;;;24.87;20.20;;;;;;;;;;5079793;28;20471;-80
2023/06/16 06:29:50;;;;;;;22.90;19.80;;;;;;;;;;5075955;28;20448;-80
2023/06/16 06:32:16;;;;;;;20.17;17.10;;;;;;;;;;5075731;28;20432;-80
2023/06/16 06:34:44;;;;;;;20.73;18.10;;;;;;;;;;5078365;28;20437;-80
2023/06/16 06:37:16;;;;;;;29.67;18.60;;;;;;;;;;5076383;28;20516;-79
2023/06/16 06:39:43;;;;;;;20.20;17.53;;;;;;;;;;5070188;28;20521;-81
2023/06/16 06:42:12;;;;;;;23.10;16.90;;;;;;;;;;5069840;28;20443;-79
2023/06/16 06:44:38;;;;;;;20.53;16.67;;;;;;;;;;5080873;28;20475;-79
2023/06/16 06:47:05;;;;;;;18.20;15.30;;;;;;;;;;5079684;28;20471;-79
2023/06/16 06:49:33;;;;;;;19.37;17.27;;;;;;;;;;5071433;28;20470;-81
2023/06/16 06:52:00;;;;;;;18.77;15.27;;;;;;;;;;5080907;28;20465;-80
2023/06/16 06:54:27;;;;;;;22.37;15.23;;;;;;;;;;5079031;28;20467;-80
2023/06/16 06:56:53;;;;;;;19.83;14.27;;;;;;;;;;5079001;28;20433;-78
2023/06/16 06:59:19;;;;;;;15.33;13.83;;;;;;;;;;5069661;28;21024;-80
2023/06/16 07:01:46;;;;;;;16.03;13.73;;;;;;;;;;5077142;28;20442;-80
2023/06/16 07:04:12;;;;;;;18.00;13.43;;;;;;;;;;5077412;28;20479;-80
2023/06/16 07:06:38;;;;;;;15.90;14.30;;;;;;;;;;5086595;28;20793;-80
2023/06/16 07:09:06;;;;;;;13.93;12.40;;;;;;;;;;5079830;28;20474;-80
2023/06/16 07:11:32;;;;;;;13.83;12.40;;;;;;;;;;5076159;28;20443;-80
2023/06/16 07:14:01;;;;;;;13.87;10.47;;;;;;;;;;5073005;28;20490;-80
2023/06/16 07:16:28;;;;;;;14.13;11.23;;;;;;;;;;5071015;28;20450;-80
2023/06/16 07:18:54;;;;;;;12.43;11.10;;;;;;;;;;5079227;28;20470;-80
2023/06/16 07:21:20;;;;;;;14.23;12.27;;;;;;;;;;5076230;28;20533;-80
2023/06/16 07:23:47;;;;;;;13.27;11.20;;;;;;;;;;5071085;28;20463;-78
2023/06/16 07:26:15;;;;;;;13.80;11.77;;;;;;;;;;5075599;28;20812;-79
2023/06/16 07:28:42;;;;;;;13.20;10.93;;;;;;;;;;5078388;28;20477;-78
2023/06/16 07:31:09;;;;;;;12.77;10.73;;;;;;;;;;5076830;28;20496;-79
2023/06/16 07:33:35;;;;;;;10.10;9.10;;;;;;;;;;5076590;28;20434;-79
2023/06/16 07:36:01;;;;;;;14.30;11.40;;;;;;;;;;5081728;28;20939;-79
2023/06/16 07:38:28;;;;;;;12.50;11.13;;;;;;;;;;5080995;28;20471;-79
2023/06/16 07:40:54;;;;;;;15.57;12.50;;;;;;;;;;5082419;28;20449;-79
2023/06/16 07:43:22;;;;;;;12.13;10.87;;;;;;;;;;5076647;28;20517;-79
2023/06/16 07:45:50;;;;;;;11.00;9.67;;;;;;;;;;5074318;28;20516;-79
2023/06/16 07:48:17;;;;;;;20.43;9.77;;;;;;;;;;5083906;28;20553;-80
2023/06/16 07:50:43;;;;;;;11.27;10.07;;;;;;;;;;5073731;28;20467;-79
2023/06/16 07:53:09;;;;;;;12.67;10.80;;;;;;;;;;5073086;28;20446;-80
2023/06/16 07:55:36;;;;;;;13.80;10.10;;;;;;;;;;5069411;28;20502;-78
2023/06/16 07:58:03;;;;;;;10.83;9.83;;;;;;;;;;5079989;28;20822;-78
2023/06/16 08:00:30;;;;;;;12.20;9.97;;;;;;;;;;5073625;28;20466;-80
2023/06/16 08:02:57;;;;;;;11.47;10.30;;;;;;;;;;5080012;28;20837;-79
2023/06/16 08:05:23;;;;;;;10.93;9.87;;;;;;;;;;5073853;28;20467;-79
2023/06/16 08:07:49;;;;;;;9.63;8.77;;;;;;;;;;5087953;28;20481;-79
2023/06/16 08:10:19;;;;;;;10.93;9.47;;;;;;;;;;5081970;28;20462;-79
2023/06/16 08:12:46;;;;;;;9.87;8.97;;;;;;;;;;5085492;28;20454;-79
2023/06/16 08:15:13;;;;;;;9.47;8.63;;;;;;;;;;5058787;28;20525;-79
2023/06/16 08:17:41;;;;;;;12.70;9.07;;;;;;;;;;5077445;28;20483;-78
2023/06/16 08:20:08;;;;;;;12.13;7.87;;;;;;;;;;5079376;28;20447;-78
2023/06/16 08:22:34;;;;;;;10.70;7.90;;;;;;;;;;5076649;28;20486;-79
2023/06/16 08:25:02;;;;;;;11.47;8.63;;;;;;;;;;5075488;28;20505;-79
2023/06/16 08:27:28;;;;;;;16.67;8.30;;;;;;;;;;5073719;28;20489;-79
2023/06/16 08:29:54;;;;;;;9.33;8.17;;;;;;;;;;5084490;28;20455;-79
2023/06/16 08:32:21;;;;;;;8.87;7.97;;;;;;;;;;5071391;28;20477;-79
2023/06/16 08:34:48;;;;;;;9.43;8.53;;;;;;;;;;5071477;28;20439;-79
2023/06/16 08:37:16;;;;;;;10.57;8.43;;;;;;;;;;5080101;28;20478;-81
2023/06/16 08:39:42;;;;;;;10.10;8.40;;;;;;;;;;5081763;28;20462;-78
2023/06/16 08:42:10;;;;;;;10.07;8.67;;;;;;;;;;5084954;28;20474;-78
2023/06/16 08:44:36;;;;;;;8.47;7.67;;;;;;;;;;5081076;28;20487;-79
2023/06/16 08:47:04;;;;;;;10.20;8.50;;;;;;;;;;5077008;28;20474;-80
2023/06/16 08:49:31;;;;;;;9.30;8.07;;;;;;;;;;5075566;28;20494;-80
2023/06/16 08:52:01;;;;;;;13.60;9.30;;;;;;;;;;5073467;28;20466;-80
2023/06/16 08:54:31;;;;;;;10.43;9.30;;;;;;;;;;5088190;28;20481;-80
2023/06/16 08:57:01;;;;;;;10.47;9.13;;;;;;;;;;5082427;28;20471;-79
2023/06/16 08:59:28;;;;;;;10.50;9.50;;;;;;;;;;5084797;28;20452;-81
2023/06/16 09:01:55;;;;;;;8.97;8.27;;;;;;;;;;5075435;28;20475;-80
2023/06/16 09:04:22;;;;;;;10.70;8.30;;;;;;;;;;5082299;28;20479;-80
2023/06/16 09:06:56;;;;;;;10.33;9.33;;;;;;;;;;5077773;28;20462;-79
2023/06/16 09:09:24;;;;;;;9.73;8.60;;;;;;;;;;5075969;28;20455;-80
2023/06/16 09:12:03;;;;;;;10.40;9.07;;;;;;;;;;5079208;28;20466;-80
2023/06/16 09:14:31;;;;;;;10.33;9.00;;;;;;;;;;5070560;28;20451;-80
2023/06/16 09:16:58;;;;;;;10.80;9.70;;;;;;;;;;5078308;28;20851;-80
2023/06/16 09:19:25;;;;;;;11.03;9.60;;;;;;;;;;5081158;28;20441;-80
2023/06/16 09:21:54;;;;;;;13.77;9.80;;;;;;;;;;5077137;28;20851;-80
2023/06/16 09:24:26;;;;;;;8.90;8.00;;;;;;;;;;5078226;28;20486;-79
2023/06/16 09:26:57;;;;;;;11.00;8.97;;;;;;;;;;5065220;28;21015;-81
2023/06/16 09:29:24;;;;;;;9.03;8.27;;;;;;;;;;5073798;28;20447;-82
2023/06/16 09:31:50;;;;;;;10.07;8.73;;;;;;;;;;5076201;28;21090;-80
2023/06/16 09:34:17;;;;;;;9.30;8.50;;;;;;;;;;5087128;28;20449;-79
2023/06/16 09:36:44;;;;;;;12.83;8.30;;;;;;;;;;5081926;28;20474;-80
2023/06/16 09:39:22;;;;;;;10.60;9.50;;;;;;;;;;5075005;28;20451;-79
2023/06/16 09:41:50;;;;;;;11.30;9.50;;;;;;;;;;5074933;28;20979;-80
2023/06/16 09:44:17;;;;;;;9.37;8.57;;;;;;;;;;5077933;28;20479;-79
2023/06/16 09:46:45;;;;;;;11.47;9.00;;;;;;;;;;5081804;28;20526;-80
2023/06/16 09:49:19;;;;;;;9.80;8.43;;;;;;;;;;5083678;28;20462;-79
2023/06/16 09:51:50;;;;;;;9.63;8.70;;;;;;;;;;5083560;28;20891;-79
2023/06/16 09:54:16;;;;;;;8.60;7.90;;;;;;;;;;5083280;28;20447;-80
2023/06/16 09:56:44;;;;;;;10.47;9.47;;;;;;;;;;5081613;28;20474;-80
2023/06/16 09:59:13;;;;;;;13.70;8.90;;;;;;;;;;5073981;28;20466;-80
2023/06/16 10:01:43;;;;;;;14.80;9.27;;;;;;;;;;5074389;28;20845;-80
2023/06/16 10:04:11;;;;;;;9.67;8.77;;;;;;;;;;5077077;28;20504;-79
2023/06/16 10:06:40;;;;;;;11.60;8.43;;;;;;;;;;5085826;28;20525;-79
2023/06/16 10:09:08;;;;;;;11.40;8.77;;;;;;;;;;5080646;28;20855;-79
2023/06/16 10:11:35;;;;;;;9.70;8.13;;;;;;;;;;5076269;28;20466;-80
2023/06/16 10:14:02;;;;;;;8.93;8.13;;;;;;;;;;5074004;28;20493;-80
2023/06/16 10:16:30;;;;;;;10.70;8.30;;;;;;;;;;5091530;28;20964;-82
2023/06/16 10:18:59;;;;;;;13.47;9.47;;;;;;;;;;5076964;28;20512;-79
2023/06/16 10:21:26;;;;;;;13.93;9.80;;;;;;;;;;5068127;28;20516;-78
2023/06/16 10:23:53;;;;;;;10.93;8.30;;;;;;;;;;5089481;28;20574;-79
2023/06/16 10:26:20;;;;;;;13.20;9.80;;;;;;;;;;5092624;28;20536;-79
2023/06/16 10:28:47;;;;;;;15.30;8.07;;;;;;;;;;5077932;28;20466;-80
2023/06/16 10:31:14;;;;;;;10.53;8.30;;;;;;;;;;5085740;28;20468;-80
2023/06/16 10:33:54;;;;;;;8.93;7.33;;;;;;;;;;5084956;28;20820;-79
2023/06/16 10:36:22;;;;;;;9.40;8.50;;;;;;;;;;5086946;28;20467;-79
2023/06/16 10:38:55;;;;;;;9.13;7.17;;;;;;;;;;5078353;28;20828;-80
2023/06/16 10:41:21;;;;;;;9.13;8.30;;;;;;;;;;5072065;28;20821;-80
2023/06/16 10:43:48;;;;;;;12.60;8.07;;;;;;;;;;5076960;28;20557;-80
2023/06/16 10:46:15;;;;;;;16.53;8.13;;;;;;;;;;5074515;28;20471;-80
2023/06/16 10:48:56;;;;;;;12.37;8.67;;;;;;;;;;5085605;28;20484;-80
2023/06/16 10:51:37;;;;;;;10.70;8.30;;;;;;;;;;5082279;28;20466;-80
2023/06/16 10:54:04;;;;;;;11.70;8.27;;;;;;;;;;5077372;28;20443;-80
2023/06/16 10:56:47;;;;;;;9.30;7.90;;;;;;;;;;5076897;28;20496;-81
2023/06/16 10:59:15;;;;;;;7.47;6.80;;;;;;;;;;5083200;28;20477;-80
2023/06/16 11:01:45;;;;;;;9.60;7.13;;;;;;;;;;5084766;28;20470;-80
2023/06/16 11:04:15;;;;;;;11.77;6.60;;;;;;;;;;5079929;28;20467;-80
2023/06/16 11:07:00;;;;;;;22.63;7.73;;;;;;;;;;5077830;28;20475;-81
2023/06/16 11:09:28;;;;;;;8.13;7.40;;;;;;;;;;5072249;28;20445;-79
2023/06/16 11:11:54;;;;;;;10.53;7.77;;;;;;;;;;5083739;28;20466;-80
2023/06/16 11:14:21;;;;;;;9.23;7.70;;;;;;;;;;5079779;28;20819;-80
2023/06/16 11:16:48;;;;;;;8.00;7.20;;;;;;;;;;5078333;28;20475;-80
2023/06/16 11:19:19;;;;;;;8.20;7.40;;;;;;;;;;5061977;28;20443;-81
2023/06/16 11:21:47;;;;;;;7.53;6.73;;;;;;;;;;5075676;28;20489;-80
2023/06/16 11:24:14;;;;;;;10.03;6.80;;;;;;;;;;5076193;28;20516;-80
2023/06/16 11:26:41;;;;;;;10.33;6.23;;;;;;;;;;5074929;28;20479;-80
2023/06/16 11:29:10;;;;;;;8.90;7.27;;;;;;;;;;5072170;28;20473;-80
2023/06/16 11:31:37;;;;;;;11.90;7.47;;;;;;;;;;5078633;28;20477;-80
2023/06/16 11:34:03;;;;;;;9.07;7.40;;;;;;;;;;5081116;28;20443;-80
2023/06/16 11:36:32;;;;;;;11.70;6.83;;;;;;;;;;5080936;28;20499;-80
2023/06/16 11:39:00;;;;;;;10.13;7.00;;;;;;;;;;5082639;28;20530;-80
2023/06/16 11:41:27;;;;;;;9.10;7.30;;;;;;;;;;5076850;28;20479;-78
2023/06/16 11:43:54;;;;;;;7.23;6.63;;;;;;;;;;5083781;28;20814;-79
2023/06/16 11:46:22;;;;;;;8.10;6.60;;;;;;;;;;5076048;28;20462;-80
2023/06/16 11:48:49;;;;;;;7.90;7.10;;;;;;;;;;5084324;28;20493;-79
2023/06/16 11:51:16;;;;;;;7.43;6.33;;;;;;;;;;5091087;28;20468;-80
2023/06/16 11:53:44;;;;;;;9.13;6.57;;;;;;;;;;5080490;28;20443;-79
2023/06/16 11:56:12;;;;;;;10.07;7.77;;;;;;;;;;5079319;28;20478;-79
2023/06/16 11:58:39;;;;;;;8.40;7.50;;;;;;;;;;5079364;28;21022;-79
2023/06/16 12:01:07;;;;;;;10.83;7.87;;;;;;;;;;5080842;28;20481;-79
2023/06/16 12:03:35;;;;;;;6.93;6.23;;;;;;;;;;5085084;28;20459;-80
2023/06/16 12:06:02;;;;;;;7.93;7.10;;;;;;;;;;5076885;28;20474;-79
2023/06/16 12:08:41;;;;;;;12.87;7.47;;;;;;;;;;5092749;28;20862;-80
2023/06/16 12:11:09;;;;;;;13.43;7.40;;;;;;;;;;5078346;28;20478;-79
2023/06/16 12:13:37;;;;;;;11.30;7.70;;;;;;;;;;5081801;28;20451;-79
2023/06/16 12:16:03;;;;;;;7.97;7.17;;;;;;;;;;5088357;28;20473;-80
2023/06/16 12:18:30;;;;;;;8.37;6.97;;;;;;;;;;5078922;28;20516;-80
2023/06/16 12:20:57;;;;;;;15.23;8.33;;;;;;;;;;5077242;28;20462;-80
2023/06/16 12:23:23;;;;;;;8.20;6.80;;;;;;;;;;5090953;28;20826;-79
2023/06/16 12:25:50;;;;;;;8.07;7.27;;;;;;;;;;5082115;28;20493;-80
2023/06/16 12:28:21;;;;;;;19.50;6.23;;;;;;;;;;5079806;28;20485;-80
2023/06/16 12:30:48;;;;;;;7.60;6.90;;;;;;;;;;5068594;28;21003;-80
2023/06/16 12:33:15;;;;;;;7.23;6.63;;;;;;;;;;5082771;28;20448;-80
2023/06/16 12:35:41;;;;;;;7.73;6.93;;;;;;;;;;5083562;28;20458;-80
2023/06/16 12:38:08;;;;;;;6.67;6.17;;;;;;;;;;5088458;28;20459;-80
2023/06/16 12:40:35;;;;;;;7.10;6.50;;;;;;;;;;5081974;28;20442;-80
2023/06/16 12:43:20;;;;;;;7.83;6.70;;;;;;;;;;5073069;28;20463;-80
2023/06/16 12:45:48;;;;;;;7.60;6.90;;;;;;;;;;5079005;28;20473;-80
2023/06/16 12:48:14;;;;;;;7.20;6.60;;;;;;;;;;5081902;28;20899;-80
2023/06/16 12:50:41;;;;;;;6.80;6.20;;;;;;;;;;5081760;28;20463;-80
2023/06/16 12:53:07;;;;;;;6.93;6.37;;;;;;;;;;5085355;28;20457;-80
2023/06/16 12:55:33;;;;;;;7.80;6.67;;;;;;;;;;5086512;28;20439;-80
2023/06/16 12:58:00;;;;;;;7.33;6.53;;;;;;;;;;5080100;28;20474;-80
2023/06/16 13:00:27;;;;;;;6.90;6.20;;;;;;;;;;5080370;28;21026;-80
2023/06/16 13:02:56;;;;;;;7.10;6.50;;;;;;;;;;5078990;28;20451;-80
2023/06/16 13:05:22;;;;;;;6.63;6.03;;;;;;;;;;5085886;28;20532;-80
2023/06/16 13:07:49;;;;;;;10.70;7.13;;;;;;;;;;5078481;28;20493;-80
2023/06/16 13:10:15;;;;;;;11.37;6.33;;;;;;;;;;5085051;28;20478;-80
2023/06/16 13:12:42;;;;;;;14.90;7.33;;;;;;;;;;5072575;28;20451;-80
2023/06/16 13:15:08;;;;;;;7.57;6.47;;;;;;;;;;5076370;28;20451;-80
2023/06/16 13:17:35;;;;;;;8.67;6.70;;;;;;;;;;5075927;28;20474;-80
2023/06/16 13:20:02;;;;;;;7.57;6.97;;;;;;;;;;5079029;28;20461;-79
2023/06/16 13:22:30;;;;;;;6.77;6.20;;;;;;;;;;5076066;28;20471;-79
2023/06/16 13:24:57;;;;;;;6.87;6.20;;;;;;;;;;5079769;28;20938;-79
2023/06/16 13:27:23;;;;;;;7.17;6.20;;;;;;;;;;5074728;28;21020;-79
2023/06/16 13:29:49;;;;;;;7.37;6.20;;;;;;;;;;5075883;28;20447;-80
2023/06/16 13:32:16;;;;;;;7.70;6.90;;;;;;;;;;5077093;28;20477;-79
2023/06/16 13:34:42;;;;;;;6.60;5.87;;;;;;;;;;5077245;28;20451;-79
2023/06/16 13:37:10;;;;;;;7.20;6.43;;;;;;;;;;5081867;28;20888;-79
2023/06/16 13:39:36;;;;;;;7.07;6.53;;;;;;;;;;5081061;28;20442;-80
2023/06/16 13:42:02;;;;;;;14.77;7.30;;;;;;;;;;5075849;28;21023;-80
2023/06/16 13:44:29;;;;;;;6.80;6.30;;;;;;;;;;5076631;28;20455;-80
2023/06/16 13:46:55;;;;;;;7.37;6.80;;;;;;;;;;5090101;28;20474;-79
2023/06/16 13:49:24;;;;;;;7.50;6.80;;;;;;;;;;5076074;28;20976;-80
2023/06/16 13:51:50;;;;;;;7.53;6.77;;;;;;;;;;5078689;28;20463;-80
2023/06/16 13:54:18;;;;;;;7.50;6.70;;;;;;;;;;5075463;28;20439;-79
2023/06/16 13:56:48;;;;;;;7.70;6.90;;;;;;;;;;5084961;28;20502;-79
2023/06/16 13:59:14;;;;;;;7.17;6.57;;;;;;;;;;5083198;28;20455;-81
2023/06/16 14:01:41;;;;;;;6.83;6.33;;;;;;;;;;5073947;28;21082;-79
2023/06/16 14:04:07;;;;;;;8.50;6.87;;;;;;;;;;5074867;28;20451;-80
2023/06/16 14:06:33;;;;;;;6.90;6.30;;;;;;;;;;5077565;28;20479;-79
2023/06/16 14:09:00;;;;;;;11.47;6.70;;;;;;;;;;5076883;28;20462;-80
2023/06/16 14:11:28;;;;;;;8.20;6.90;;;;;;;;;;5069164;28;20517;-78
2023/06/16 14:13:54;;;;;;;7.00;6.40;;;;;;;;;;5082729;28;20439;-80
2023/06/16 14:16:21;;;;;;;7.10;6.40;;;;;;;;;;5078202;28;20549;-80
2023/06/16 14:18:47;;;;;;;8.07;6.30;;;;;;;;;;5081086;28;20460;-79
2023/06/16 14:21:15;;;;;;;8.00;7.30;;;;;;;;;;5074441;28;20478;-80
2023/06/16 14:23:41;;;;;;;7.23;6.57;;;;;;;;;;5077086;28;20451;-80
2023/06/16 14:26:07;;;;;;;7.50;6.80;;;;;;;;;;5062064;28;20471;-79
2023/06/16 14:28:35;;;;;;;8.07;7.00;;;;;;;;;;5073080;28;20458;-80